createdAt,value
2018-04-10T00:02:13.552Z,100074.27
2018-04-10T00:04:41.455Z,100079.54
2018-04-10T00:07:09.099Z,100066.37
2018-04-10T00:09:36.718Z,100073.01
2018-04-10T00:12:04.303Z,100072.02
2018-04-10T00:14:32.034Z,100075.93
2018-04-10T00:16:59.644Z,100073.13
2018-04-10T00:19:27.288Z,100077.63
2018-04-10T00:21:55.048Z,100075.48
2018-04-10T00:24:22.665Z,100081.82
2018-04-10T00:26:50.325Z,100075.89
2018-04-10T00:29:17.980Z,100072.48
2018-04-10T00:31:45.896Z,100075.48
2018-04-10T00:34:13.557Z,100073.81
2018-04-10T00:36:41.406Z,100080.28
2018-04-10T00:39:09.030Z,100080.45
2018-04-10T00:41:36.705Z,100082.32
2018-04-10T00:44:04.309Z,100082.90
2018-04-10T00:46:31.971Z,100080.53
2018-04-10T00:48:59.600Z,100079.34
2018-04-10T00:51:27.291Z,100082.97
2018-04-10T00:53:55.059Z,100076.34
2018-04-10T00:56:22.654Z,100074.97
2018-04-10T00:58:50.354Z,100074.75
2018-04-10T01:01:18.254Z,100076.73
2018-04-10T01:03:45.928Z,100081.73
2018-04-10T01:06:13.644Z,100077.15
2018-04-10T01:08:41.229Z,100076.73
2018-04-10T01:11:08.854Z,100081.79
2018-04-10T01:13:36.826Z,100081.56
2018-04-10T01:16:04.472Z,100071.41
2018-04-10T01:18:32.504Z,100072.78
2018-04-10T01:21:00.152Z,100082.92
2018-04-10T01:23:27.921Z,100081.61
2018-04-10T01:25:55.665Z,100090.02
2018-04-10T01:28:23.540Z,100084.11
2018-04-10T01:30:51.538Z,100078.88
2018-04-10T01:33:19.175Z,100085.52
2018-04-10T01:35:46.812Z,100088.20
2018-04-10T01:38:14.462Z,100081.91
2018-04-10T01:40:42.400Z,100080.91
2018-04-10T01:43:10.053Z,100076.94
2018-04-10T01:45:37.675Z,100094.22
2018-04-10T01:48:05.295Z,100093.82
2018-04-10T01:50:33.023Z,100087.97
2018-04-10T01:53:01.069Z,100098.09
2018-04-10T01:55:28.724Z,100100.23
2018-04-10T01:57:56.334Z,100098.09
2018-04-10T02:00:23.947Z,100098.02
2018-04-10T02:02:51.581Z,100097.61
2018-04-10T02:05:19.215Z,100095.79
2018-04-10T02:07:47.089Z,100095.23
2018-04-10T02:10:32.056Z,100101.17
2018-04-10T02:12:59.873Z,100099.69
2018-04-10T02:15:27.530Z,100098.78
2018-04-10T02:17:55.179Z,100095.34
2018-04-10T02:20:22.787Z,100095.28
2018-04-10T02:22:50.378Z,100104.06
2018-04-10T02:25:18.030Z,100102.70
2018-04-10T02:27:45.739Z,100109.16
2018-04-10T02:30:13.514Z,100118.37
2018-04-10T02:32:41.137Z,100116.79
2018-04-10T02:35:08.750Z,100108.15
2018-04-10T02:37:36.515Z,100116.16
2018-04-10T02:40:04.145Z,100110.50
2018-04-10T02:42:31.948Z,100120.06
2018-04-10T02:44:59.616Z,100124.61
2018-04-10T02:47:27.301Z,100126.81
2018-04-10T02:49:55.034Z,100125.22
2018-04-10T02:52:22.704Z,100123.25
2018-04-10T02:54:50.317Z,100125.58
2018-04-10T02:57:17.972Z,100122.23
2018-04-10T02:59:45.604Z,100122.36
2018-04-10T03:02:13.236Z,100117.99
2018-04-10T03:04:41.121Z,100124.63
2018-04-10T03:07:08.835Z,100129.91
2018-04-10T03:09:36.520Z,100126.70
2018-04-10T03:12:04.263Z,100121.20
2018-04-10T03:14:31.923Z,100126.83
2018-04-10T03:16:59.543Z,100118.82
2018-04-10T03:19:27.260Z,100120.08
2018-04-10T03:21:54.948Z,100120.84
2018-04-10T03:24:22.557Z,100115.33
2018-04-10T03:26:50.266Z,100118.11
2018-04-10T03:29:17.867Z,100114.57
2018-04-10T03:31:45.833Z,100117.27
2018-04-10T03:34:13.629Z,100123.86
2018-04-10T03:36:41.260Z,100116.58
2018-04-10T03:39:08.956Z,100108.35
2018-04-10T03:41:36.615Z,100101.36
2018-04-10T03:44:04.281Z,100091.80
2018-04-10T03:46:31.964Z,100097.80
2018-04-10T03:48:59.589Z,100099.23
2018-04-10T03:51:27.201Z,100110.66
2018-04-10T03:53:54.845Z,100111.06
2018-04-10T03:56:22.770Z,100114.50
2018-04-10T03:58:50.407Z,100124.35
2018-04-10T04:01:18.023Z,100131.16
2018-04-10T04:03:45.695Z,100137.95
2018-04-10T04:06:13.419Z,100138.27
2018-04-10T04:08:41.033Z,100136.91
2018-04-10T04:11:08.619Z,100148.34
2018-04-10T04:13:36.248Z,100150.66
2018-04-10T04:16:03.962Z,100150.16
2018-04-10T04:18:43.286Z,100150.52
2018-04-10T04:21:22.641Z,100151.97
2018-04-10T04:23:50.605Z,100157.36
2018-04-10T04:26:18.677Z,100158.37
2018-04-10T04:28:46.293Z,100156.17
2018-04-10T04:31:13.922Z,100164.58
2018-04-10T04:33:41.665Z,100160.44
2018-04-10T04:36:09.333Z,100156.14
2018-04-10T04:38:37.292Z,100165.45
2018-04-10T04:41:04.993Z,100168.05
2018-04-10T04:43:32.703Z,100163.68
2018-04-10T04:46:00.374Z,100165.59
2018-04-10T04:48:28.306Z,100164.34
2018-04-10T04:50:55.894Z,100172.05
2018-04-10T04:53:23.609Z,100173.64
2018-04-10T04:55:51.472Z,100175.95
2018-04-10T04:58:19.127Z,100186.79
2018-04-10T05:00:46.770Z,100184.52
2018-04-10T05:03:14.375Z,100190.61
2018-04-10T05:05:41.985Z,100193.04
2018-04-10T05:08:09.734Z,100199.84
2018-04-10T05:10:37.362Z,100204.89
2018-04-10T05:13:04.994Z,100202.11
2018-04-10T05:15:32.579Z,100205.47
2018-04-10T05:18:00.221Z,100206.19
2018-04-10T05:20:27.824Z,100205.81
2018-04-10T05:22:55.707Z,100210.13
2018-04-10T05:25:23.360Z,100208.19
2018-04-10T05:27:51.180Z,100213.34
2018-04-10T05:30:18.849Z,100221.02
2018-04-10T05:32:46.439Z,100218.91
2018-04-10T05:35:14.074Z,100224.97
2018-04-10T05:37:41.732Z,100224.36
2018-04-10T05:40:09.336Z,100229.98
2018-04-10T05:42:37.338Z,100232.12
2018-04-10T05:45:04.967Z,100243.89
2018-04-10T05:47:32.561Z,100246.38
2018-04-10T05:50:00.541Z,100246.20
2018-04-10T05:52:35.722Z,100241.54
2018-04-10T05:55:03.379Z,100240.18
2018-04-10T05:57:31.106Z,100242.47
2018-04-10T05:59:58.832Z,100253.42
2018-04-10T06:02:26.442Z,100258.28
2018-04-10T06:04:54.039Z,100261.45
2018-04-10T06:07:21.660Z,100267.53
2018-04-10T06:09:49.347Z,100270.93
2018-04-10T06:12:16.948Z,100274.73
2018-04-10T06:14:44.939Z,100271.84
2018-04-10T06:17:12.573Z,100282.92
2018-04-10T06:19:40.183Z,100278.67
2018-04-10T06:22:08.096Z,100283.13
2018-04-10T06:24:35.689Z,100278.56
2018-04-10T06:27:03.458Z,100280.94
2018-04-10T06:29:31.412Z,100279.84
2018-04-10T06:31:59.494Z,100280.89
2018-04-10T06:34:27.097Z,100279.54
2018-04-10T06:36:54.744Z,100280.78
2018-04-10T06:39:22.346Z,100277.05
2018-04-10T06:41:49.985Z,100281.05
2018-04-10T06:44:17.722Z,100290.72
2018-04-10T06:46:45.394Z,100287.93
2018-04-10T06:49:12.992Z,100289.91
2018-04-10T06:51:40.621Z,100294.78
2018-04-10T06:54:08.223Z,100300.61
2018-04-10T06:56:35.839Z,100294.64
2018-04-10T06:59:03.585Z,100294.69
2018-04-10T07:01:31.223Z,100294.94
2018-04-10T07:04:03.622Z,100292.29
2018-04-10T07:06:31.325Z,100301.82
2018-04-10T07:08:59.035Z,100302.84
2018-04-10T07:11:26.642Z,100301.05
2018-04-10T07:13:54.635Z,100297.93
2018-04-10T07:16:22.639Z,100298.03
2018-04-10T07:18:50.242Z,100295.79
2018-04-10T07:21:17.891Z,100300.11
2018-04-10T07:23:45.514Z,100304.88
2018-04-10T07:26:13.107Z,100300.47
2018-04-10T07:28:40.754Z,100304.05
2018-04-10T07:31:08.538Z,100307.58
2018-04-10T07:33:36.136Z,100305.50
2018-04-10T07:36:04.039Z,100305.13
2018-04-10T07:38:31.651Z,100304.39
2018-04-10T07:40:59.269Z,100309.01
2018-04-10T07:43:26.951Z,100309.16
2018-04-10T07:45:54.531Z,100312.53
2018-04-10T07:48:22.114Z,100309.94
2018-04-10T07:50:49.808Z,100309.52
2018-04-10T07:53:17.434Z,100309.17
2018-04-10T07:55:45.014Z,100303.18
2018-04-10T07:58:12.641Z,100316.00
2018-04-10T08:00:40.285Z,100316.32
2018-04-10T08:03:07.865Z,100320.28
2018-04-10T08:05:35.480Z,100318.96
2018-04-10T08:08:03.144Z,100319.63
2018-04-10T08:10:30.761Z,100322.11
2018-04-10T08:12:58.665Z,100320.91
2018-04-10T08:15:26.637Z,100323.89
2018-04-10T08:17:54.257Z,100322.97
2018-04-10T08:20:21.899Z,100328.47
2018-04-10T08:22:49.491Z,100334.52
2018-04-10T08:25:17.101Z,100335.56
2018-04-10T08:27:44.747Z,100332.24
2018-04-10T08:30:12.611Z,100331.78
2018-04-10T08:32:40.229Z,100328.66
2018-04-10T08:35:07.887Z,100334.64
2018-04-10T08:37:35.486Z,100341.84
2018-04-10T08:40:03.151Z,100353.72
2018-04-10T08:42:31.052Z,100347.13
2018-04-10T08:44:58.723Z,100351.94
2018-04-10T08:47:26.308Z,100353.42
2018-04-10T08:49:53.943Z,100356.17
2018-04-10T08:52:21.534Z,100357.50
2018-04-10T08:54:49.207Z,100352.55
2018-04-10T08:57:16.798Z,100364.30
2018-04-10T08:59:44.393Z,100356.73
2018-04-10T09:02:12.028Z,100356.83
2018-04-10T09:04:39.662Z,100365.16
2018-04-10T09:07:07.306Z,100372.95
2018-04-10T09:09:34.892Z,100364.01
2018-04-10T09:12:02.760Z,100366.25
2018-04-10T09:14:30.352Z,100364.32
2018-04-10T09:16:57.991Z,100356.76
2018-04-10T09:19:25.662Z,100359.91
2018-04-10T09:21:53.347Z,100352.90
2018-04-10T09:24:20.945Z,100352.73
2018-04-10T09:26:48.857Z,100355.93
2018-04-10T09:29:17.381Z,100362.63
2018-04-10T09:31:48.332Z,100364.25
2018-04-10T09:34:15.965Z,100366.20
2018-04-10T09:36:43.557Z,100363.30
2018-04-10T09:39:11.188Z,100360.70
2018-04-10T09:41:38.774Z,100362.70
2018-04-10T09:44:06.388Z,100359.42
2018-04-10T09:46:34.082Z,100363.77
2018-04-10T09:49:02.043Z,100360.63
2018-04-10T09:51:29.714Z,100360.85
2018-04-10T09:53:57.331Z,100358.13
2018-04-10T09:56:25.048Z,100361.30
2018-04-10T09:58:52.701Z,100364.66
2018-04-10T10:01:20.291Z,100369.39
2018-04-10T10:03:47.967Z,100370.41
2018-04-10T10:06:15.659Z,100367.66
2018-04-10T10:08:43.263Z,100379.30
2018-04-10T10:11:11.358Z,100378.28
2018-04-10T10:13:39.055Z,100386.16
2018-04-10T10:16:06.641Z,100386.17
2018-04-10T10:18:34.285Z,100381.80
2018-04-10T10:21:01.943Z,100379.61
2018-04-10T10:23:29.592Z,100386.08
2018-04-10T10:25:57.186Z,100376.95
2018-04-10T10:28:24.800Z,100385.94
2018-04-10T10:30:52.651Z,100385.11
2018-04-10T10:33:20.250Z,100390.41
2018-04-10T10:35:47.878Z,100391.15
2018-04-10T10:38:15.494Z,100393.85
2018-04-10T10:40:43.073Z,100396.18
2018-04-10T10:43:10.724Z,100400.83
2018-04-10T10:45:38.402Z,100397.34
2018-04-10T10:48:06.002Z,100386.66
2018-04-10T10:50:33.634Z,100392.81
2018-04-10T10:53:01.240Z,100394.03
2018-04-10T10:55:29.234Z,100396.20
2018-04-10T10:57:56.829Z,100398.93
2018-04-10T11:00:24.831Z,100393.31
2018-04-10T11:02:52.448Z,100401.62
2018-04-10T11:05:20.088Z,100395.09
2018-04-10T11:07:48.048Z,100388.20
2018-04-10T11:10:15.696Z,100391.34
2018-04-10T11:12:43.284Z,100392.41
2018-04-10T11:15:10.920Z,100393.41
2018-04-10T11:17:38.562Z,100386.14
2018-04-10T11:20:06.311Z,100380.00
2018-04-10T11:22:33.904Z,100382.41
2018-04-10T11:25:01.963Z,100384.11
2018-04-10T11:27:30.243Z,100389.29
2018-04-10T11:29:57.888Z,100387.77
2018-04-10T11:32:25.558Z,100390.64
2018-04-10T11:34:53.280Z,100394.67
2018-04-10T11:37:20.894Z,100392.28
2018-04-10T11:39:48.497Z,100393.20
2018-04-10T11:42:16.420Z,100384.10
2018-04-10T11:44:44.105Z,100380.95
2018-04-10T11:47:11.759Z,100382.98
2018-04-10T11:49:39.358Z,100377.87
2018-04-10T11:52:06.984Z,100383.02
2018-04-10T11:54:34.838Z,100376.92
2018-04-10T11:57:02.698Z,100378.75
2018-04-10T11:59:30.407Z,100374.12
2018-04-10T12:01:58.019Z,100367.38
2018-04-10T12:04:26.004Z,100364.41
2018-04-10T12:06:53.966Z,100369.73
2018-04-10T12:09:21.618Z,100368.44
2018-04-10T12:11:49.493Z,100359.26
2018-04-10T12:14:17.077Z,100366.88
2018-04-10T12:16:44.704Z,100371.15
2018-04-10T12:19:12.324Z,100367.05
2018-04-10T12:21:40.024Z,100366.69
2018-04-10T12:24:07.905Z,100364.17
2018-04-10T12:26:35.929Z,100370.73
2018-04-10T12:29:03.530Z,100367.94
2018-04-10T12:31:31.185Z,100359.46
2018-04-10T12:33:58.844Z,100360.50
2018-04-10T12:36:26.437Z,100354.84
2018-04-10T12:38:54.037Z,100355.45
2018-04-10T12:41:21.648Z,100352.00
2018-04-10T12:43:49.263Z,100345.91
2018-04-10T12:46:16.892Z,100344.41
2018-04-10T12:48:44.827Z,100340.86
2018-04-10T12:51:12.425Z,100340.05
2018-04-10T12:53:40.043Z,100341.57
2018-04-10T12:56:07.700Z,100343.20
2018-04-10T12:58:35.338Z,100343.20
2018-04-10T13:01:03.205Z,100336.16
2018-04-10T13:03:30.783Z,100340.42
2018-04-10T13:05:58.438Z,100340.48
2018-04-10T13:08:26.391Z,100337.05
2018-04-10T13:10:54.006Z,100338.03
2018-04-10T13:13:21.648Z,100333.23
2018-04-10T13:15:49.636Z,100335.36
2018-04-10T13:18:17.493Z,100331.14
2018-04-10T13:20:45.114Z,100340.45
2018-04-10T13:23:12.730Z,100333.01
2018-04-10T13:25:40.697Z,100322.78
2018-04-10T13:28:08.306Z,100329.02
2018-04-10T13:30:36.003Z,100320.95
2018-04-10T13:33:03.672Z,100328.35
2018-04-10T13:35:31.302Z,100324.46
2018-04-10T13:37:59.128Z,100321.22
2018-04-10T13:40:26.741Z,100323.84
2018-04-10T13:42:54.415Z,100320.59
2018-04-10T13:45:22.047Z,100319.63
2018-04-10T13:47:49.766Z,100313.91
2018-04-10T13:50:17.383Z,100306.61
2018-04-10T13:52:45.032Z,100311.37
2018-04-10T13:55:12.622Z,100303.42
2018-04-10T13:57:40.463Z,100307.67
2018-04-10T14:00:08.098Z,100305.36
2018-04-10T14:02:35.739Z,100301.77
2018-04-10T14:05:03.400Z,100298.00
2018-04-10T14:07:31.035Z,100295.29
2018-04-10T14:09:58.639Z,100294.48
2018-04-10T14:12:26.647Z,100287.30
2018-04-10T14:14:54.298Z,100286.33
2018-04-10T14:17:22.017Z,100284.50
2018-04-10T14:19:49.678Z,100271.70
2018-04-10T14:22:17.338Z,100282.75
2018-04-10T14:24:44.953Z,100273.09
2018-04-10T14:27:12.580Z,100266.69
2018-04-10T14:29:40.198Z,100272.11
2018-04-10T14:32:07.865Z,100264.03
2018-04-10T14:34:35.534Z,100273.12
2018-04-10T14:37:03.314Z,100268.14
2018-04-10T14:39:31.008Z,100261.04
2018-04-10T14:41:58.655Z,100265.62
2018-04-10T14:44:26.344Z,100263.70
2018-04-10T14:46:58.081Z,100259.59
2018-04-10T14:49:29.507Z,100255.72
2018-04-10T14:51:57.551Z,100256.73
2018-04-10T14:54:25.144Z,100264.27
2018-04-10T14:56:53.006Z,100256.39
2018-04-10T14:59:20.651Z,100254.34
2018-04-10T15:01:48.293Z,100249.11
2018-04-10T15:04:15.907Z,100250.94
2018-04-10T15:06:43.556Z,100243.97
2018-04-10T15:09:11.167Z,100246.41
2018-04-10T15:11:38.881Z,100240.23
2018-04-10T15:14:06.470Z,100234.27
2018-04-10T15:16:34.480Z,100225.41
2018-04-10T15:19:02.169Z,100231.62
2018-04-10T15:21:29.770Z,100234.71
2018-04-10T15:23:57.488Z,100243.75
2018-04-10T15:26:25.135Z,100229.66
2018-04-10T15:28:52.732Z,100230.77
2018-04-10T15:31:20.339Z,100230.02
2018-04-10T15:33:48.018Z,100222.39
2018-04-10T15:36:15.683Z,100226.93
2018-04-10T15:38:43.796Z,100224.42
2018-04-10T15:41:11.395Z,100229.66
2018-04-10T15:43:39.005Z,100227.22
2018-04-10T15:46:06.720Z,100227.23
2018-04-10T15:48:34.426Z,100227.72
2018-04-10T15:51:02.043Z,100223.53
2018-04-10T15:53:29.733Z,100224.61
2018-04-10T15:55:57.367Z,100214.19
2018-04-10T15:58:24.990Z,100221.67
2018-04-10T16:00:52.869Z,100220.36
2018-04-10T16:03:20.641Z,100222.69
2018-04-10T16:05:48.226Z,100221.60
2018-04-10T16:08:15.870Z,100218.56
2018-04-10T16:10:43.533Z,100222.12
2018-04-10T16:13:11.132Z,100220.36
2018-04-10T16:15:38.835Z,100216.25
2018-04-10T16:18:06.496Z,100223.90
2018-04-10T16:20:34.096Z,100221.97
2018-04-10T16:23:01.706Z,100224.75
2018-04-10T16:25:29.425Z,100229.13
2018-04-10T16:27:57.033Z,100234.84
2018-04-10T16:30:24.630Z,100229.42
2018-04-10T16:32:52.313Z,100236.36
2018-04-10T16:35:19.917Z,100235.61
2018-04-10T16:37:47.664Z,100231.75
2018-04-10T16:40:15.604Z,100224.55
2018-04-10T16:42:43.518Z,100232.43
2018-04-10T16:45:11.152Z,100231.76
2018-04-10T16:47:38.761Z,100233.92
2018-04-10T16:50:06.757Z,100237.98
2018-04-10T16:52:34.692Z,100236.81
2018-04-10T16:55:02.291Z,100232.53
2018-04-10T16:57:29.913Z,100245.38
2018-04-10T16:59:57.520Z,100241.66
2018-04-10T17:02:25.233Z,100244.22
2018-04-10T17:04:52.832Z,100252.95
2018-04-10T17:07:20.483Z,100253.39
2018-04-10T17:09:48.184Z,100256.42
2018-04-10T17:12:15.792Z,100258.39
2018-04-10T17:14:43.490Z,100256.59
2018-04-10T17:17:11.180Z,100257.98
2018-04-10T17:19:38.779Z,100250.51
2018-04-10T17:22:06.655Z,100251.69
2018-04-10T17:24:34.304Z,100265.66
2018-04-10T17:27:01.925Z,100274.31
2018-04-10T17:29:29.547Z,100283.07
2018-04-10T17:31:58.176Z,100260.70
2018-04-10T17:34:25.839Z,100275.26
2018-04-10T17:36:53.447Z,100272.05
2018-04-10T17:39:21.160Z,100287.11
2018-04-10T17:41:48.835Z,100282.76
2018-04-10T17:44:16.521Z,100290.95
2018-04-10T17:46:44.290Z,100291.07
2018-04-10T17:49:11.891Z,100288.36
2018-04-10T17:51:39.589Z,100288.86
2018-04-10T17:54:07.328Z,100295.00
2018-04-10T17:56:34.971Z,100298.19
2018-04-10T17:59:02.575Z,100300.27
2018-04-10T18:01:30.282Z,100296.94
2018-04-10T18:03:57.972Z,100303.38
2018-04-10T18:06:25.579Z,100301.74
2018-04-10T18:08:53.225Z,100304.91
2018-04-10T18:11:20.808Z,100305.13
2018-04-10T18:13:50.895Z,100317.30
2018-04-10T18:16:18.487Z,100326.89
2018-04-10T18:18:46.343Z,100324.25
2018-04-10T18:21:14.114Z,100330.36
2018-04-10T18:23:41.936Z,100335.95
2018-04-10T18:26:09.619Z,100335.59
2018-04-10T18:28:37.325Z,100340.41
2018-04-10T18:31:04.941Z,100350.95
2018-04-10T18:33:32.527Z,100355.47
2018-04-10T18:36:00.191Z,100357.50
2018-04-10T18:38:27.822Z,100351.97
2018-04-10T18:40:55.485Z,100362.39
2018-04-10T18:43:23.087Z,100365.41
2018-04-10T18:45:51.036Z,100367.13
2018-04-10T18:48:18.636Z,100372.83
2018-04-10T18:50:46.297Z,100382.27
2018-04-10T18:53:14.010Z,100376.90
2018-04-10T18:55:41.630Z,100397.25
2018-04-10T18:58:09.256Z,100396.59
2018-04-10T19:00:36.846Z,100396.69
2018-04-10T19:03:04.884Z,100401.45
2018-04-10T19:05:32.478Z,100400.52
2018-04-10T19:08:00.095Z,100403.35
2018-04-10T19:10:27.745Z,100411.34
2018-04-10T19:12:55.392Z,100410.11
2018-04-10T19:15:23.070Z,100410.38
2018-04-10T19:17:50.770Z,100413.66
2018-04-10T19:20:18.718Z,100412.69
2018-04-10T19:22:46.363Z,100417.24
2018-04-10T19:25:13.975Z,100424.27
2018-04-10T19:27:42.010Z,100422.08
2018-04-10T19:30:09.612Z,100420.36
2018-04-10T19:32:37.218Z,100420.92
2018-04-10T19:35:04.886Z,100421.36
2018-04-10T19:37:32.769Z,100426.92
2018-04-10T19:40:00.356Z,100427.59
2018-04-10T19:42:27.976Z,100431.13
2018-04-10T19:44:55.590Z,100433.41
2018-04-10T19:47:23.243Z,100425.81
2018-04-10T19:49:50.919Z,100426.59
2018-04-10T19:52:19.870Z,100435.42
2018-04-10T19:54:47.843Z,100429.12
2018-04-10T19:57:15.905Z,100432.16
2018-04-10T19:59:43.639Z,100428.89
2018-04-10T20:02:11.713Z,100435.19
2018-04-10T20:04:39.294Z,100442.08
2018-04-10T20:07:06.881Z,100442.09
2018-04-10T20:09:34.551Z,100440.86
2018-04-10T20:12:02.207Z,100446.95
2018-04-10T20:14:30.159Z,100437.92
2018-04-10T20:16:57.878Z,100442.22
2018-04-10T20:19:25.550Z,100445.34
2018-04-10T20:21:53.147Z,100449.56
2018-04-10T20:24:21.046Z,100454.54
2018-04-10T20:26:48.642Z,100449.57
2018-04-10T20:29:16.221Z,100455.69
2018-04-10T20:31:43.849Z,100449.69
2018-04-10T20:34:11.464Z,100451.16
2018-04-10T20:36:39.429Z,100449.95
2018-04-10T20:39:07.058Z,100456.17
2018-04-10T20:41:35.573Z,100458.75
2018-04-10T20:44:03.520Z,100457.91
2018-04-10T20:46:31.121Z,100457.73
2018-04-10T20:48:58.770Z,100460.34
2018-04-10T20:51:26.419Z,100460.00
2018-04-10T20:53:54.413Z,100458.59
2018-04-10T20:56:22.001Z,100466.27
2018-04-10T20:58:49.599Z,100470.94
2018-04-10T21:01:17.283Z,100472.51
2018-04-10T21:03:45.135Z,100469.65
2018-04-10T21:06:12.750Z,100475.20
2018-04-10T21:08:40.357Z,100475.83
2018-04-10T21:11:07.993Z,100471.64
2018-04-10T21:13:36.592Z,100482.80
2018-04-10T21:16:04.283Z,100479.80
2018-04-10T21:18:31.870Z,100483.18
2018-04-10T21:20:59.484Z,100488.65
2018-04-10T21:23:27.171Z,100481.42
2018-04-10T21:25:55.086Z,100478.17
2018-04-10T21:28:22.676Z,100487.82
2018-04-10T21:30:50.368Z,100496.28
2018-04-10T21:33:18.390Z,100494.45
2018-04-10T21:35:46.014Z,100500.92
2018-04-10T21:38:13.598Z,100491.66
2018-04-10T21:40:41.229Z,100484.71
2018-04-10T21:43:14.438Z,100485.52
2018-04-10T21:45:42.705Z,100512.47
2018-04-10T21:48:10.320Z,100500.29
2018-04-10T21:50:37.955Z,100495.89
2018-04-10T21:53:05.652Z,100507.17
2018-04-10T21:55:33.626Z,100508.45
2018-04-10T21:58:01.323Z,100512.53
2018-04-10T22:00:29.072Z,100520.84
2018-04-10T22:02:56.686Z,100521.42
2018-04-10T22:05:24.567Z,100522.88
2018-04-10T22:07:52.216Z,100517.61
2018-04-10T22:10:19.803Z,100518.77
2018-04-10T22:12:47.463Z,100515.02
2018-04-10T22:15:15.063Z,100523.00
2018-04-10T22:17:42.659Z,100529.17
2018-04-10T22:20:10.504Z,100525.34
2018-04-10T22:22:43.577Z,100515.95
2018-04-10T22:25:11.451Z,100539.59
2018-04-10T22:27:39.148Z,100534.56
2018-04-10T22:30:06.750Z,100521.70
2018-04-10T22:32:34.350Z,100528.02
2018-04-10T22:35:01.969Z,100524.94
2018-04-10T22:37:29.625Z,100525.69
2018-04-10T22:39:57.233Z,100529.22
2018-04-10T22:42:24.971Z,100527.90
2018-04-10T22:44:52.671Z,100513.25
2018-04-10T22:47:20.301Z,100513.46
2018-04-10T22:49:48.327Z,100525.73
2018-04-10T22:52:15.993Z,100514.63
2018-04-10T22:54:43.949Z,100531.94
2018-04-10T22:57:11.582Z,100526.76
2018-04-10T22:59:39.193Z,100535.39
2018-04-10T23:02:06.857Z,100529.70
2018-04-10T23:04:34.457Z,100539.20
2018-04-10T23:07:02.062Z,100541.34
2018-04-10T23:09:29.944Z,100545.56
2018-04-10T23:11:57.923Z,100548.99
2018-04-10T23:14:25.735Z,100551.15
2018-04-10T23:16:53.676Z,100541.53
2018-04-10T23:19:21.630Z,100543.45
2018-04-10T23:21:49.242Z,100554.48
2018-04-10T23:24:16.980Z,100543.98
2018-04-10T23:26:44.726Z,100552.72
2018-04-10T23:29:12.591Z,100547.54
2018-04-10T23:31:40.377Z,100555.61
2018-04-10T23:34:08.103Z,100558.38
2018-04-10T23:36:35.818Z,100563.19
2018-04-10T23:39:03.508Z,100565.38
2018-04-10T23:41:31.275Z,100558.22
2018-04-10T23:43:59.396Z,100556.64
2018-04-10T23:46:27.189Z,100557.55
2018-04-10T23:48:54.932Z,100558.22
2018-04-10T23:51:22.562Z,100558.16
2018-04-10T23:53:50.178Z,100556.58
2018-04-10T23:56:17.872Z,100560.69
2018-04-10T23:58:45.593Z,100562.96
